Country
Station

 

Weather  for  North Platte, North Platte Regional Airport  -  United States    United States

  
23 °C (73 °F)
    
 
 

Current METAR for North Platte, North Platte Regional Airport is :

KLBF 191453Z AUTO 00000KT 10SM CLR 23/18 A2984 RMK AO2 SLP078 T02280178 53010

 

This is a report for North Platte, North Platte Regional Airport - United States.
 
The report was made 47 minutes ago, at 14:53 UTC .
The wind was calm.
 
The temperature was 23 °C (73 °F), with a dew-point at 18 °C (64 °F).
The temperature felt like 24 °C (75 °F).
 
The atmospheric pressure was 1011 hPa (29.84 inHg).
The relative humidity was 73.5%.
 
The sky was clear.
 
The overall visibility was 16.1 kilometers (10.0 miles).
 

 
 
 
 

Country :   A   B   C   D   E   F   G   H   I   J   K   L   M   N   O   P   Q   R   S   T   U   V   W   Y   Z

 

Site Info  |  Disclaimer  |  Credits  |  Privacy
Contact us  |  Add to favorites
© 2013-2018 METARs - All rights reserved